sensor_id;sensor_type;location;lat;lon;timestamp;temperature;humidity
4526;DHT22;2275;52.208;8.804;2022-10-31T00:01:32;12.40;64.30
4526;DHT22;2275;52.208;8.804;2022-10-31T00:03:59;12.40;67.90
4526;DHT22;2275;52.208;8.804;2022-10-31T00:06:26;12.40;67.00
4526;DHT22;2275;52.208;8.804;2022-10-31T00:08:54;12.40;65.50
4526;DHT22;2275;52.208;8.804;2022-10-31T00:11:20;12.40;59.00
4526;DHT22;2275;52.208;8.804;2022-10-31T00:13:48;12.40;57.50
4526;DHT22;2275;52.208;8.804;2022-10-31T00:16:16;12.30;52.60
4526;DHT22;2275;52.208;8.804;2022-10-31T00:18:42;12.30;52.10
4526;DHT22;2275;52.208;8.804;2022-10-31T00:23:43;12.30;52.10
4526;DHT22;2275;52.208;8.804;2022-10-31T00:26:10;12.20;58.50
4526;DHT22;2275;52.208;8.804;2022-10-31T00:28:38;12.10;59.40
4526;DHT22;2275;52.208;8.804;2022-10-31T00:31:06;12.10;59.90
4526;DHT22;2275;52.208;8.804;2022-10-31T00:33:33;12.10;58.30
4526;DHT22;2275;52.208;8.804;2022-10-31T00:35:59;12.00;57.30
4526;DHT22;2275;52.208;8.804;2022-10-31T00:38:26;12.00;57.60
4526;DHT22;2275;52.208;8.804;2022-10-31T00:40:53;11.90;56.30
4526;DHT22;2275;52.208;8.804;2022-10-31T00:43:21;11.90;58.30
4526;DHT22;2275;52.208;8.804;2022-10-31T00:45:50;11.90;59.50
4526;DHT22;2275;52.208;8.804;2022-10-31T00:51:11;11.90;63.30
4526;DHT22;2275;52.208;8.804;2022-10-31T00:53:41;11.90;63.10
4526;DHT22;2275;52.208;8.804;2022-10-31T00:56:08;11.90;61.80
4526;DHT22;2275;52.208;8.804;2022-10-31T00:58:36;11.90;60.70
4526;DHT22;2275;52.208;8.804;2022-10-31T01:01:04;11.80;56.00
4526;DHT22;2275;52.208;8.804;2022-10-31T01:03:32;11.80;55.40
4526;DHT22;2275;52.208;8.804;2022-10-31T01:06:02;11.80;57.50
4526;DHT22;2275;52.208;8.804;2022-10-31T01:08:27;11.70;59.30
4526;DHT22;2275;52.208;8.804;2022-10-31T01:11:05;11.70;61.70
4526;DHT22;2275;52.208;8.804;2022-10-31T01:13:31;11.70;63.90
4526;DHT22;2275;52.208;8.804;2022-10-31T01:15:59;11.60;63.10
4526;DHT22;2275;52.208;8.804;2022-10-31T01:18:26;11.60;64.80
4526;DHT22;2275;52.208;8.804;2022-10-31T01:20:58;11.70;63.90
4526;DHT22;2275;52.208;8.804;2022-10-31T01:23:26;11.60;62.30
4526;DHT22;2275;52.208;8.804;2022-10-31T01:26:03;11.60;63.60
4526;DHT22;2275;52.208;8.804;2022-10-31T01:28:29;11.60;61.00
4526;DHT22;2275;52.208;8.804;2022-10-31T01:31:00;11.60;61.10
4526;DHT22;2275;52.208;8.804;2022-10-31T01:33:24;11.60;62.20
4526;DHT22;2275;52.208;8.804;2022-10-31T01:35:50;11.60;61.40
4526;DHT22;2275;52.208;8.804;2022-10-31T01:38:18;11.60;62.30
4526;DHT22;2275;52.208;8.804;2022-10-31T01:40:45;11.60;62.00
4526;DHT22;2275;52.208;8.804;2022-10-31T01:43:13;11.60;62.40
4526;DHT22;2275;52.208;8.804;2022-10-31T01:45:41;11.60;61.80
4526;DHT22;2275;52.208;8.804;2022-10-31T01:48:12;11.50;61.80
4526;DHT22;2275;52.208;8.804;2022-10-31T01:50:38;11.50;64.10
4526;DHT22;2275;52.208;8.804;2022-10-31T01:53:05;11.50;64.60
4526;DHT22;2275;52.208;8.804;2022-10-31T01:55:32;11.50;65.90
4526;DHT22;2275;52.208;8.804;2022-10-31T01:58:04;11.50;65.00
4526;DHT22;2275;52.208;8.804;2022-10-31T02:00:29;11.50;63.80
4526;DHT22;2275;52.208;8.804;2022-10-31T02:02:55;11.50;61.30
4526;DHT22;2275;52.208;8.804;2022-10-31T02:05:23;11.40;60.60
4526;DHT22;2275;52.208;8.804;2022-10-31T02:07:54;11.40;64.40
4526;DHT22;2275;52.208;8.804;2022-10-31T02:10:21;11.40;64.80
4526;DHT22;2275;52.208;8.804;2022-10-31T02:12:47;11.40;62.70
4526;DHT22;2275;52.208;8.804;2022-10-31T02:15:14;11.40;62.50
4526;DHT22;2275;52.208;8.804;2022-10-31T02:17:41;11.40;62.50
4526;DHT22;2275;52.208;8.804;2022-10-31T02:20:15;11.40;61.80
4526;DHT22;2275;52.208;8.804;2022-10-31T02:25:45;11.30;59.40
4526;DHT22;2275;52.208;8.804;2022-10-31T02:28:16;11.20;61.40
4526;DHT22;2275;52.208;8.804;2022-10-31T02:30:41;11.30;64.00
4526;DHT22;2275;52.208;8.804;2022-10-31T02:33:20;11.20;63.00
4526;DHT22;2275;52.208;8.804;2022-10-31T02:36:04;11.20;63.60
4526;DHT22;2275;52.208;8.804;2022-10-31T02:41:13;11.20;56.90
4526;DHT22;2275;52.208;8.804;2022-10-31T02:43:40;11.10;58.00
4526;DHT22;2275;52.208;8.804;2022-10-31T02:46:10;11.00;59.80
4526;DHT22;2275;52.208;8.804;2022-10-31T02:48:37;11.00;62.90
4526;DHT22;2275;52.208;8.804;2022-10-31T02:51:05;11.00;64.40
4526;DHT22;2275;52.208;8.804;2022-10-31T02:53:33;11.00;66.00
4526;DHT22;2275;52.208;8.804;2022-10-31T02:56:02;11.00;66.70
4526;DHT22;2275;52.208;8.804;2022-10-31T02:58:29;11.00;64.00
4526;DHT22;2275;52.208;8.804;2022-10-31T03:01:12;11.00;62.50
4526;DHT22;2275;52.208;8.804;2022-10-31T03:04:01;11.00;62.90
4526;DHT22;2275;52.208;8.804;2022-10-31T03:06:39;11.00;61.80
4526;DHT22;2275;52.208;8.804;2022-10-31T03:09:16;10.90;61.00
4526;DHT22;2275;52.208;8.804;2022-10-31T03:11:56;10.90;62.90
4526;DHT22;2275;52.208;8.804;2022-10-31T03:14:26;10.90;63.60
4526;DHT22;2275;52.208;8.804;2022-10-31T03:16:54;10.90;64.10
4526;DHT22;2275;52.208;8.804;2022-10-31T03:19:26;10.80;63.20
4526;DHT22;2275;52.208;8.804;2022-10-31T03:21:54;10.90;64.90
4526;DHT22;2275;52.208;8.804;2022-10-31T03:24:20;10.90;65.70
4526;DHT22;2275;52.208;8.804;2022-10-31T03:26:47;10.90;66.30
4526;DHT22;2275;52.208;8.804;2022-10-31T03:29:15;10.90;65.90
4526;DHT22;2275;52.208;8.804;2022-10-31T03:31:46;10.90;65.10
4526;DHT22;2275;52.208;8.804;2022-10-31T03:34:12;10.90;66.70
4526;DHT22;2275;52.208;8.804;2022-10-31T03:36:39;11.00;66.70
4526;DHT22;2275;52.208;8.804;2022-10-31T03:39:07;11.00;65.00
4526;DHT22;2275;52.208;8.804;2022-10-31T03:41:35;11.10;64.70
4526;DHT22;2275;52.208;8.804;2022-10-31T03:44:03;11.10;64.00
4526;DHT22;2275;52.208;8.804;2022-10-31T03:46:29;11.10;66.10
4526;DHT22;2275;52.208;8.804;2022-10-31T03:48:56;11.20;65.30
4526;DHT22;2275;52.208;8.804;2022-10-31T03:51:34;11.30;63.40
4526;DHT22;2275;52.208;8.804;2022-10-31T03:54:07;11.20;63.20
4526;DHT22;2275;52.208;8.804;2022-10-31T03:56:39;11.30;61.40
4526;DHT22;2275;52.208;8.804;2022-10-31T03:59:07;11.20;57.50
4526;DHT22;2275;52.208;8.804;2022-10-31T04:01:34;11.20;58.80
4526;DHT22;2275;52.208;8.804;2022-10-31T04:04:01;11.20;58.50
4526;DHT22;2275;52.208;8.804;2022-10-31T04:06:28;11.10;57.50
4526;DHT22;2275;52.208;8.804;2022-10-31T04:08:57;11.10;57.10
4526;DHT22;2275;52.208;8.804;2022-10-31T04:11:24;11.00;57.10
4526;DHT22;2275;52.208;8.804;2022-10-31T04:13:50;10.90;57.50
4526;DHT22;2275;52.208;8.804;2022-10-31T04:16:18;10.90;58.30
4526;DHT22;2275;52.208;8.804;2022-10-31T04:18:45;10.90;59.10
4526;DHT22;2275;52.208;8.804;2022-10-31T04:21:12;10.90;60.30
4526;DHT22;2275;52.208;8.804;2022-10-31T04:23:39;10.90;61.70
4526;DHT22;2275;52.208;8.804;2022-10-31T04:26:10;10.80;64.70
4526;DHT22;2275;52.208;8.804;2022-10-31T04:28:35;10.80;64.00
4526;DHT22;2275;52.208;8.804;2022-10-31T04:31:02;10.80;65.00
4526;DHT22;2275;52.208;8.804;2022-10-31T04:33:29;10.80;64.80
4526;DHT22;2275;52.208;8.804;2022-10-31T04:35:56;10.90;66.00
4526;DHT22;2275;52.208;8.804;2022-10-31T04:38:23;10.90;65.50
4526;DHT22;2275;52.208;8.804;2022-10-31T04:40:51;10.80;63.00
4526;DHT22;2275;52.208;8.804;2022-10-31T04:43:18;10.80;63.80
4526;DHT22;2275;52.208;8.804;2022-10-31T04:45:45;10.80;63.10
4526;DHT22;2275;52.208;8.804;2022-10-31T04:48:12;10.70;61.40
4526;DHT22;2275;52.208;8.804;2022-10-31T04:50:41;10.70;60.60
4526;DHT22;2275;52.208;8.804;2022-10-31T04:53:10;10.70;59.50
4526;DHT22;2275;52.208;8.804;2022-10-31T04:55:37;10.70;58.80
4526;DHT22;2275;52.208;8.804;2022-10-31T04:58:04;10.60;58.40
4526;DHT22;2275;52.208;8.804;2022-10-31T05:00:31;10.70;58.80
4526;DHT22;2275;52.208;8.804;2022-10-31T05:02:58;10.60;58.30
4526;DHT22;2275;52.208;8.804;2022-10-31T05:05:26;10.50;58.40
4526;DHT22;2275;52.208;8.804;2022-10-31T05:07:52;10.50;60.90
4526;DHT22;2275;52.208;8.804;2022-10-31T05:10:21;10.50;60.90
4526;DHT22;2275;52.208;8.804;2022-10-31T05:12:48;10.50;62.10
4526;DHT22;2275;52.208;8.804;2022-10-31T05:15:14;10.50;61.80
4526;DHT22;2275;52.208;8.804;2022-10-31T05:17:41;10.40;61.70
4526;DHT22;2275;52.208;8.804;2022-10-31T05:20:22;10.50;63.50
4526;DHT22;2275;52.208;8.804;2022-10-31T05:22:53;10.40;62.90
4526;DHT22;2275;52.208;8.804;2022-10-31T05:25:22;10.40;64.10
4526;DHT22;2275;52.208;8.804;2022-10-31T05:28:07;10.40;61.50
4526;DHT22;2275;52.208;8.804;2022-10-31T05:30:36;10.40;59.00
4526;DHT22;2275;52.208;8.804;2022-10-31T05:33:03;10.30;60.00
4526;DHT22;2275;52.208;8.804;2022-10-31T05:35:31;10.30;61.80
4526;DHT22;2275;52.208;8.804;2022-10-31T05:37:57;10.20;61.10
4526;DHT22;2275;52.208;8.804;2022-10-31T05:40:26;10.20;62.10
4526;DHT22;2275;52.208;8.804;2022-10-31T05:42:54;10.10;62.70
4526;DHT22;2275;52.208;8.804;2022-10-31T05:45:20;10.10;64.00
4526;DHT22;2275;52.208;8.804;2022-10-31T05:47:53;10.20;60.60
4526;DHT22;2275;52.208;8.804;2022-10-31T05:50:20;10.10;57.50
4526;DHT22;2275;52.208;8.804;2022-10-31T05:52:47;10.00;57.30
4526;DHT22;2275;52.208;8.804;2022-10-31T05:55:18;10.00;61.20
4526;DHT22;2275;52.208;8.804;2022-10-31T05:57:52;10.00;63.10
4526;DHT22;2275;52.208;8.804;2022-10-31T06:00:20;10.00;64.50
4526;DHT22;2275;52.208;8.804;2022-10-31T06:02:47;10.00;64.10
4526;DHT22;2275;52.208;8.804;2022-10-31T06:05:14;10.10;67.80
4526;DHT22;2275;52.208;8.804;2022-10-31T06:07:41;10.10;65.60
4526;DHT22;2275;52.208;8.804;2022-10-31T06:10:10;10.10;64.90
4526;DHT22;2275;52.208;8.804;2022-10-31T06:12:38;10.00;61.80
4526;DHT22;2275;52.208;8.804;2022-10-31T06:15:06;10.00;61.70
4526;DHT22;2275;52.208;8.804;2022-10-31T06:17:34;10.00;63.50
4526;DHT22;2275;52.208;8.804;2022-10-31T06:20:00;9.90;64.00
4526;DHT22;2275;52.208;8.804;2022-10-31T06:22:27;9.90;63.00
4526;DHT22;2275;52.208;8.804;2022-10-31T06:24:54;9.80;65.00
4526;DHT22;2275;52.208;8.804;2022-10-31T06:27:21;9.90;65.30
4526;DHT22;2275;52.208;8.804;2022-10-31T06:29:48;9.90;65.80
4526;DHT22;2275;52.208;8.804;2022-10-31T06:32:15;9.90;62.30
4526;DHT22;2275;52.208;8.804;2022-10-31T06:34:43;9.80;62.80
4526;DHT22;2275;52.208;8.804;2022-10-31T06:37:10;9.80;63.30
4526;DHT22;2275;52.208;8.804;2022-10-31T06:39:36;9.80;65.10
4526;DHT22;2275;52.208;8.804;2022-10-31T06:42:04;9.80;66.10
4526;DHT22;2275;52.208;8.804;2022-10-31T06:44:31;9.90;64.60
4526;DHT22;2275;52.208;8.804;2022-10-31T06:46:58;9.90;64.00
4526;DHT22;2275;52.208;8.804;2022-10-31T06:49:26;9.90;65.00
4526;DHT22;2275;52.208;8.804;2022-10-31T06:51:53;9.90;64.90
4526;DHT22;2275;52.208;8.804;2022-10-31T06:54:20;9.90;64.60
4526;DHT22;2275;52.208;8.804;2022-10-31T06:56:47;9.90;65.20
4526;DHT22;2275;52.208;8.804;2022-10-31T06:59:15;9.90;65.70
4526;DHT22;2275;52.208;8.804;2022-10-31T07:01:41;10.00;64.10
4526;DHT22;2275;52.208;8.804;2022-10-31T07:04:10;10.00;66.50
4526;DHT22;2275;52.208;8.804;2022-10-31T07:06:37;10.00;65.70
4526;DHT22;2275;52.208;8.804;2022-10-31T07:09:06;10.10;67.90
4526;DHT22;2275;52.208;8.804;2022-10-31T07:11:35;10.30;70.00
4526;DHT22;2275;52.208;8.804;2022-10-31T07:14:03;10.30;69.20
4526;DHT22;2275;52.208;8.804;2022-10-31T07:16:31;10.40;69.70
4526;DHT22;2275;52.208;8.804;2022-10-31T07:19:02;10.50;68.10
4526;DHT22;2275;52.208;8.804;2022-10-31T07:21:30;10.50;67.00
4526;DHT22;2275;52.208;8.804;2022-10-31T07:23:56;10.60;64.30
4526;DHT22;2275;52.208;8.804;2022-10-31T07:26:24;10.70;61.40
4526;DHT22;2275;52.208;8.804;2022-10-31T07:28:51;10.70;59.90
4526;DHT22;2275;52.208;8.804;2022-10-31T07:31:18;10.80;57.60
4526;DHT22;2275;52.208;8.804;2022-10-31T07:33:45;10.70;57.50
4526;DHT22;2275;52.208;8.804;2022-10-31T07:36:12;10.70;59.70
4526;DHT22;2275;52.208;8.804;2022-10-31T07:38:39;10.80;61.40
4526;DHT22;2275;52.208;8.804;2022-10-31T07:41:07;10.80;61.70
4526;DHT22;2275;52.208;8.804;2022-10-31T07:43:34;10.90;63.30
4526;DHT22;2275;52.208;8.804;2022-10-31T07:46:01;10.90;59.30
4526;DHT22;2275;52.208;8.804;2022-10-31T07:48:28;11.00;59.30
4526;DHT22;2275;52.208;8.804;2022-10-31T07:50:55;11.10;61.10
4526;DHT22;2275;52.208;8.804;2022-10-31T07:53:22;11.20;64.00
4526;DHT22;2275;52.208;8.804;2022-10-31T07:55:49;11.30;67.60
4526;DHT22;2275;52.208;8.804;2022-10-31T07:58:16;11.40;72.70
4526;DHT22;2275;52.208;8.804;2022-10-31T08:00:44;11.60;73.10
4526;DHT22;2275;52.208;8.804;2022-10-31T08:03:11;11.80;73.50
4526;DHT22;2275;52.208;8.804;2022-10-31T08:05:38;12.00;72.20
4526;DHT22;2275;52.208;8.804;2022-10-31T08:08:05;12.20;68.60
4526;DHT22;2275;52.208;8.804;2022-10-31T08:10:33;12.40;64.80
4526;DHT22;2275;52.208;8.804;2022-10-31T08:13:02;12.60;60.10
4526;DHT22;2275;52.208;8.804;2022-10-31T08:15:31;12.80;52.70
4526;DHT22;2275;52.208;8.804;2022-10-31T08:17:58;12.90;52.60
4526;DHT22;2275;52.208;8.804;2022-10-31T08:20:26;13.00;47.90
4526;DHT22;2275;52.208;8.804;2022-10-31T08:22:54;13.00;45.90
4526;DHT22;2275;52.208;8.804;2022-10-31T08:25:20;13.10;43.20
4526;DHT22;2275;52.208;8.804;2022-10-31T08:27:51;13.20;48.10
4526;DHT22;2275;52.208;8.804;2022-10-31T08:30:17;13.20;47.60
4526;DHT22;2275;52.208;8.804;2022-10-31T08:32:44;13.30;50.80
4526;DHT22;2275;52.208;8.804;2022-10-31T08:35:11;13.50;50.20
4526;DHT22;2275;52.208;8.804;2022-10-31T08:37:38;13.60;51.80
4526;DHT22;2275;52.208;8.804;2022-10-31T08:40:07;13.80;50.70
4526;DHT22;2275;52.208;8.804;2022-10-31T08:42:34;14.00;47.90
4526;DHT22;2275;52.208;8.804;2022-10-31T08:45:02;14.10;45.60
4526;DHT22;2275;52.208;8.804;2022-10-31T08:47:28;14.20;43.60
4526;DHT22;2275;52.208;8.804;2022-10-31T08:49:55;14.30;36.80
4526;DHT22;2275;52.208;8.804;2022-10-31T08:52:23;14.40;27.10
4526;DHT22;2275;52.208;8.804;2022-10-31T08:54:50;14.40;26.20
4526;DHT22;2275;52.208;8.804;2022-10-31T08:57:17;14.50;26.90
4526;DHT22;2275;52.208;8.804;2022-10-31T08:59:44;14.50;27.40
4526;DHT22;2275;52.208;8.804;2022-10-31T09:02:11;14.60;25.40
4526;DHT22;2275;52.208;8.804;2022-10-31T09:04:39;14.60;25.10
4526;DHT22;2275;52.208;8.804;2022-10-31T09:07:06;14.70;24.70
4526;DHT22;2275;52.208;8.804;2022-10-31T09:09:32;14.70;25.30
4526;DHT22;2275;52.208;8.804;2022-10-31T09:11:59;14.80;24.30
4526;DHT22;2275;52.208;8.804;2022-10-31T09:14:26;14.90;23.10
4526;DHT22;2275;52.208;8.804;2022-10-31T09:16:53;15.00;22.20
4526;DHT22;2275;52.208;8.804;2022-10-31T09:19:20;15.10;22.50
4526;DHT22;2275;52.208;8.804;2022-10-31T09:21:47;15.20;23.40
4526;DHT22;2275;52.208;8.804;2022-10-31T09:24:14;15.30;18.00
4526;DHT22;2275;52.208;8.804;2022-10-31T09:26:42;15.50;12.40
4526;DHT22;2275;52.208;8.804;2022-10-31T09:29:09;15.50;12.20
4526;DHT22;2275;52.208;8.804;2022-10-31T09:31:36;15.60;7.80
4526;DHT22;2275;52.208;8.804;2022-10-31T09:34:03;15.60;10.70
4526;DHT22;2275;52.208;8.804;2022-10-31T09:36:30;15.70;12.40
4526;DHT22;2275;52.208;8.804;2022-10-31T09:38:57;16.00;12.40
4526;DHT22;2275;52.208;8.804;2022-10-31T09:41:30;16.20;6.60
4526;DHT22;2275;52.208;8.804;2022-10-31T09:46:48;17.10;1.00
4526;DHT22;2275;52.208;8.804;2022-10-31T09:50:03;17.40;1.00
4526;DHT22;2275;52.208;8.804;2022-10-31T09:52:19;17.60;1.00
4526;DHT22;2275;52.208;8.804;2022-10-31T09:54:53;17.90;1.00
4526;DHT22;2275;52.208;8.804;2022-10-31T09:57:25;18.10;1.00
4526;DHT22;2275;52.208;8.804;2022-10-31T09:59:50;18.30;1.00
4526;DHT22;2275;52.208;8.804;2022-10-31T10:02:22;18.70;1.00
4526;DHT22;2275;52.208;8.804;2022-10-31T10:05:04;19.10;99.90
4526;DHT22;2275;52.208;8.804;2022-10-31T10:07:54;19.30;99.90
4526;DHT22;2275;52.208;8.804;2022-10-31T10:10:24;19.20;99.90
4526;DHT22;2275;52.208;8.804;2022-10-31T10:12:57;19.10;99.90
4526;DHT22;2275;52.208;8.804;2022-10-31T10:18:18;19.50;1.00
4526;DHT22;2275;52.208;8.804;2022-10-31T10:20:52;20.00;1.00
4526;DHT22;2275;52.208;8.804;2022-10-31T10:23:23;20.70;23.70
4526;DHT22;2275;52.208;8.804;2022-10-31T10:25:47;21.20;1.00
4526;DHT22;2275;52.208;8.804;2022-10-31T10:28:21;21.50;99.90
4526;DHT22;2275;52.208;8.804;2022-10-31T10:30:50;21.70;99.90
4526;DHT22;2275;52.208;8.804;2022-10-31T10:33:22;21.80;1.00
4526;DHT22;2275;52.208;8.804;2022-10-31T10:35:52;21.80;31.90
4526;DHT22;2275;52.208;8.804;2022-10-31T10:38:42;21.80;1.00
4526;DHT22;2275;52.208;8.804;2022-10-31T10:41:07;21.80;1.00
4526;DHT22;2275;52.208;8.804;2022-10-31T10:43:35;22.00;99.90
4526;DHT22;2275;52.208;8.804;2022-10-31T10:46:35;21.80;99.90
4526;DHT22;2275;52.208;8.804;2022-10-31T10:49:23;21.40;1.00
4526;DHT22;2275;52.208;8.804;2022-10-31T10:51:48;21.40;1.00
4526;DHT22;2275;52.208;8.804;2022-10-31T10:57:27;20.90;91.70
4526;DHT22;2275;52.208;8.804;2022-10-31T10:59:52;20.70;99.90
4526;DHT22;2275;52.208;8.804;2022-10-31T11:02:21;20.60;99.90
4526;DHT22;2275;52.208;8.804;2022-10-31T11:04:54;20.50;1.00
4526;DHT22;2275;52.208;8.804;2022-10-31T11:07:23;20.20;1.00
4526;DHT22;2275;52.208;8.804;2022-10-31T11:10:02;19.70;1.00
4526;DHT22;2275;52.208;8.804;2022-10-31T11:12:24;19.70;1.00
4526;DHT22;2275;52.208;8.804;2022-10-31T11:14:54;19.80;99.90
4526;DHT22;2275;52.208;8.804;2022-10-31T11:17:25;19.70;99.90
4526;DHT22;2275;52.208;8.804;2022-10-31T11:19:58;19.80;1.00
4526;DHT22;2275;52.208;8.804;2022-10-31T11:22:16;19.90;1.00
4526;DHT22;2275;52.208;8.804;2022-10-31T11:24:43;19.90;99.90
4526;DHT22;2275;52.208;8.804;2022-10-31T11:27:26;19.90;99.90
4526;DHT22;2275;52.208;8.804;2022-10-31T11:30:04;19.80;1.00
4526;DHT22;2275;52.208;8.804;2022-10-31T11:32:23;19.40;99.90
4526;DHT22;2275;52.208;8.804;2022-10-31T11:34:57;19.30;99.90
4526;DHT22;2275;52.208;8.804;2022-10-31T11:37:34;19.20;99.90
4526;DHT22;2275;52.208;8.804;2022-10-31T11:40:03;19.20;1.00
4526;DHT22;2275;52.208;8.804;2022-10-31T11:42:34;19.30;99.90
4526;DHT22;2275;52.208;8.804;2022-10-31T11:44:56;19.50;1.00
4526;DHT22;2275;52.208;8.804;2022-10-31T11:47:26;19.60;1.00
4526;DHT22;2275;52.208;8.804;2022-10-31T11:49:56;19.50;1.00
4526;DHT22;2275;52.208;8.804;2022-10-31T11:52:33;19.40;28.10
4526;DHT22;2275;52.208;8.804;2022-10-31T11:57:43;19.40;1.00
4526;DHT22;2275;52.208;8.804;2022-10-31T12:00:31;19.40;99.90
4526;DHT22;2275;52.208;8.804;2022-10-31T12:03:15;19.20;99.90
4526;DHT22;2275;52.208;8.804;2022-10-31T12:05:41;19.20;99.90
4526;DHT22;2275;52.208;8.804;2022-10-31T12:08:09;19.00;1.00
4526;DHT22;2275;52.208;8.804;2022-10-31T12:10:58;19.00;1.00
4526;DHT22;2275;52.208;8.804;2022-10-31T12:13:28;19.00;1.00
4526;DHT22;2275;52.208;8.804;2022-10-31T12:15:53;18.90;1.00
4526;DHT22;2275;52.208;8.804;2022-10-31T12:18:42;18.90;1.00
4526;DHT22;2275;52.208;8.804;2022-10-31T12:21:15;18.90;1.00
4526;DHT22;2275;52.208;8.804;2022-10-31T12:24:14;19.00;1.00
4526;DHT22;2275;52.208;8.804;2022-10-31T12:26:42;19.00;1.00
4526;DHT22;2275;52.208;8.804;2022-10-31T12:29:18;19.20;1.00
4526;DHT22;2275;52.208;8.804;2022-10-31T12:31:46;19.30;99.90
4526;DHT22;2275;52.208;8.804;2022-10-31T12:37:02;19.60;41.20
4526;DHT22;2275;52.208;8.804;2022-10-31T12:40:00;19.70;1.00
4526;DHT22;2275;52.208;8.804;2022-10-31T12:42:45;19.90;28.90
4526;DHT22;2275;52.208;8.804;2022-10-31T12:45:44;19.90;1.00
4526;DHT22;2275;52.208;8.804;2022-10-31T12:47:58;20.00;1.00
4526;DHT22;2275;52.208;8.804;2022-10-31T12:50:46;20.10;10.20
4526;DHT22;2275;52.208;8.804;2022-10-31T12:53:16;20.30;1.00
4526;DHT22;2275;52.208;8.804;2022-10-31T12:55:45;20.50;1.00
4526;DHT22;2275;52.208;8.804;2022-10-31T12:58:16;20.50;1.00
4526;DHT22;2275;52.208;8.804;2022-10-31T13:00:42;20.60;99.90
4526;DHT22;2275;52.208;8.804;2022-10-31T13:03:28;20.70;5.20
4526;DHT22;2275;52.208;8.804;2022-10-31T13:05:58;20.80;1.00
4526;DHT22;2275;52.208;8.804;2022-10-31T13:08:28;20.80;1.00
4526;DHT22;2275;52.208;8.804;2022-10-31T13:11:04;20.80;1.00
4526;DHT22;2275;52.208;8.804;2022-10-31T13:13:34;20.70;1.00
4526;DHT22;2275;52.208;8.804;2022-10-31T13:16:16;20.60;1.00
4526;DHT22;2275;52.208;8.804;2022-10-31T13:18:54;20.60;1.00
4526;DHT22;2275;52.208;8.804;2022-10-31T13:21:23;20.60;1.00
4526;DHT22;2275;52.208;8.804;2022-10-31T13:23:49;20.70;1.00
4526;DHT22;2275;52.208;8.804;2022-10-31T13:26:26;20.80;1.00
4526;DHT22;2275;52.208;8.804;2022-10-31T13:29:14;20.80;99.90
4526;DHT22;2275;52.208;8.804;2022-10-31T13:31:28;20.70;53.30
4526;DHT22;2275;52.208;8.804;2022-10-31T13:33:57;20.70;1.00
4526;DHT22;2275;52.208;8.804;2022-10-31T13:36:36;20.60;34.90
4526;DHT22;2275;52.208;8.804;2022-10-31T13:44:22;20.50;1.00
4526;DHT22;2275;52.208;8.804;2022-10-31T13:46:51;20.50;1.00
4526;DHT22;2275;52.208;8.804;2022-10-31T13:49:51;20.50;1.00
4526;DHT22;2275;52.208;8.804;2022-10-31T13:52:13;20.60;1.00
4526;DHT22;2275;52.208;8.804;2022-10-31T13:54:41;20.60;1.00
4526;DHT22;2275;52.208;8.804;2022-10-31T13:57:31;20.60;1.00
4526;DHT22;2275;52.208;8.804;2022-10-31T14:00:06;20.60;1.00
4526;DHT22;2275;52.208;8.804;2022-10-31T14:02:31;20.70;1.00
4526;DHT22;2275;52.208;8.804;2022-10-31T14:05:04;20.70;1.00
4526;DHT22;2275;52.208;8.804;2022-10-31T14:07:30;20.70;1.00
4526;DHT22;2275;52.208;8.804;2022-10-31T14:10:04;20.80;1.00
4526;DHT22;2275;52.208;8.804;2022-10-31T14:12:47;20.80;1.00
4526;DHT22;2275;52.208;8.804;2022-10-31T14:15:22;20.80;1.00
4526;DHT22;2275;52.208;8.804;2022-10-31T14:17:51;20.80;1.00
4526;DHT22;2275;52.208;8.804;2022-10-31T14:20:22;20.80;1.00
4526;DHT22;2275;52.208;8.804;2022-10-31T14:22:48;20.80;1.00
4526;DHT22;2275;52.208;8.804;2022-10-31T14:25:24;20.80;1.00
4526;DHT22;2275;52.208;8.804;2022-10-31T14:27:50;20.70;1.00
4526;DHT22;2275;52.208;8.804;2022-10-31T14:30:19;20.70;1.00
4526;DHT22;2275;52.208;8.804;2022-10-31T14:32:47;20.60;1.00
4526;DHT22;2275;52.208;8.804;2022-10-31T14:35:14;20.50;1.00
4526;DHT22;2275;52.208;8.804;2022-10-31T14:40:51;20.30;99.90
4526;DHT22;2275;52.208;8.804;2022-10-31T14:43:28;20.30;99.90
4526;DHT22;2275;52.208;8.804;2022-10-31T14:45:58;20.20;99.90
4526;DHT22;2275;52.208;8.804;2022-10-31T14:51:21;20.10;1.00
4526;DHT22;2275;52.208;8.804;2022-10-31T14:53:50;19.90;1.00
4526;DHT22;2275;52.208;8.804;2022-10-31T14:56:29;19.80;99.90
4526;DHT22;2275;52.208;8.804;2022-10-31T14:58:58;19.70;1.00
4526;DHT22;2275;52.208;8.804;2022-10-31T15:01:25;19.70;1.00
4526;DHT22;2275;52.208;8.804;2022-10-31T15:03:52;19.60;99.90
4526;DHT22;2275;52.208;8.804;2022-10-31T15:06:20;19.50;1.00
4526;DHT22;2275;52.208;8.804;2022-10-31T15:08:48;19.40;99.90
4526;DHT22;2275;52.208;8.804;2022-10-31T15:11:18;19.30;99.90
4526;DHT22;2275;52.208;8.804;2022-10-31T15:13:50;19.20;99.90
4526;DHT22;2275;52.208;8.804;2022-10-31T15:16:31;19.20;99.90
4526;DHT22;2275;52.208;8.804;2022-10-31T15:18:59;19.10;99.90
4526;DHT22;2275;52.208;8.804;2022-10-31T15:21:26;18.90;1.00
4526;DHT22;2275;52.208;8.804;2022-10-31T15:23:53;18.70;99.90
4526;DHT22;2275;52.208;8.804;2022-10-31T15:26:20;18.60;99.90
4526;DHT22;2275;52.208;8.804;2022-10-31T15:28:56;18.70;99.90
4526;DHT22;2275;52.208;8.804;2022-10-31T15:31:15;18.60;99.90
4526;DHT22;2275;52.208;8.804;2022-10-31T15:33:42;18.50;99.90
4526;DHT22;2275;52.208;8.804;2022-10-31T15:36:27;18.40;1.00
4526;DHT22;2275;52.208;8.804;2022-10-31T15:38:57;18.40;1.00
4526;DHT22;2275;52.208;8.804;2022-10-31T15:41:35;18.40;1.00
4526;DHT22;2275;52.208;8.804;2022-10-31T15:44:10;18.50;1.00
4526;DHT22;2275;52.208;8.804;2022-10-31T15:46:31;18.40;1.00
4526;DHT22;2275;52.208;8.804;2022-10-31T15:49:03;18.40;1.00
4526;DHT22;2275;52.208;8.804;2022-10-31T15:51:32;18.40;1.00
4526;DHT22;2275;52.208;8.804;2022-10-31T15:54:01;18.50;1.00
4526;DHT22;2275;52.208;8.804;2022-10-31T15:56:28;18.50;1.00
4526;DHT22;2275;52.208;8.804;2022-10-31T15:58:56;18.40;1.00
4526;DHT22;2275;52.208;8.804;2022-10-31T16:01:23;18.40;1.00
4526;DHT22;2275;52.208;8.804;2022-10-31T16:03:59;18.40;1.00
4526;DHT22;2275;52.208;8.804;2022-10-31T16:06:25;18.40;1.00
4526;DHT22;2275;52.208;8.804;2022-10-31T16:08:52;18.40;1.00
4526;DHT22;2275;52.208;8.804;2022-10-31T16:11:36;18.40;1.00
4526;DHT22;2275;52.208;8.804;2022-10-31T16:14:14;18.30;1.00
4526;DHT22;2275;52.208;8.804;2022-10-31T16:16:40;18.30;1.00
4526;DHT22;2275;52.208;8.804;2022-10-31T16:19:02;18.30;1.00
4526;DHT22;2275;52.208;8.804;2022-10-31T16:21:33;18.20;1.00
4526;DHT22;2275;52.208;8.804;2022-10-31T16:24:03;18.10;1.00
4526;DHT22;2275;52.208;8.804;2022-10-31T16:26:29;18.10;1.00
4526;DHT22;2275;52.208;8.804;2022-10-31T16:28:56;18.10;1.00
4526;DHT22;2275;52.208;8.804;2022-10-31T16:31:28;18.10;1.00
4526;DHT22;2275;52.208;8.804;2022-10-31T16:34:25;18.10;1.00
4526;DHT22;2275;52.208;8.804;2022-10-31T16:36:35;18.00;1.00
4526;DHT22;2275;52.208;8.804;2022-10-31T16:39:02;18.00;1.00
4526;DHT22;2275;52.208;8.804;2022-10-31T16:41:29;17.90;1.00
4526;DHT22;2275;52.208;8.804;2022-10-31T16:43:57;17.90;1.00
4526;DHT22;2275;52.208;8.804;2022-10-31T16:46:24;17.80;1.00
4526;DHT22;2275;52.208;8.804;2022-10-31T16:48:51;17.80;1.00
4526;DHT22;2275;52.208;8.804;2022-10-31T16:51:20;17.80;1.00
4526;DHT22;2275;52.208;8.804;2022-10-31T16:53:51;17.80;1.00
4526;DHT22;2275;52.208;8.804;2022-10-31T16:56:16;17.80;1.00
4526;DHT22;2275;52.208;8.804;2022-10-31T16:58:43;17.80;1.00
4526;DHT22;2275;52.208;8.804;2022-10-31T17:01:11;17.80;1.00